sensor_id;sensor_type;location;lat;lon;timestamp;temperature;humidity
24146;DHT22;12308;50.948;4.706;2023-12-28T00:00:43;11.80;99.90
24146;DHT22;12308;50.948;4.706;2023-12-28T00:03:08;11.80;99.90
24146;DHT22;12308;50.948;4.706;2023-12-28T00:05:34;11.80;99.90
24146;DHT22;12308;50.948;4.706;2023-12-28T00:08:00;11.70;99.90
24146;DHT22;12308;50.948;4.706;2023-12-28T00:10:26;11.70;99.90
24146;DHT22;12308;50.948;4.706;2023-12-28T00:12:53;11.70;99.90
24146;DHT22;12308;50.948;4.706;2023-12-28T00:15:18;11.70;99.90
24146;DHT22;12308;50.948;4.706;2023-12-28T00:17:44;11.80;99.90
24146;DHT22;12308;50.948;4.706;2023-12-28T00:20:10;11.70;99.90
24146;DHT22;12308;50.948;4.706;2023-12-28T00:22:37;11.70;99.90
24146;DHT22;12308;50.948;4.706;2023-12-28T00:25:06;11.70;99.90
24146;DHT22;12308;50.948;4.706;2023-12-28T00:27:32;11.80;99.90
24146;DHT22;12308;50.948;4.706;2023-12-28T00:30:00;11.80;99.90
24146;DHT22;12308;50.948;4.706;2023-12-28T00:32:25;11.80;99.90
24146;DHT22;12308;50.948;4.706;2023-12-28T00:34:51;11.90;99.90
24146;DHT22;12308;50.948;4.706;2023-12-28T00:37:17;11.90;99.90
24146;DHT22;12308;50.948;4.706;2023-12-28T00:39:43;11.90;99.90
24146;DHT22;12308;50.948;4.706;2023-12-28T00:42:09;11.90;99.90
24146;DHT22;12308;50.948;4.706;2023-12-28T00:44:35;12.00;99.90
24146;DHT22;12308;50.948;4.706;2023-12-28T00:47:01;12.00;99.90
24146;DHT22;12308;50.948;4.706;2023-12-28T00:49:27;12.00;99.90
24146;DHT22;12308;50.948;4.706;2023-12-28T00:51:52;11.90;99.90
24146;DHT22;12308;50.948;4.706;2023-12-28T00:54:19;11.90;99.90
24146;DHT22;12308;50.948;4.706;2023-12-28T00:56:45;11.80;99.90
24146;DHT22;12308;50.948;4.706;2023-12-28T00:59:10;11.80;99.90
24146;DHT22;12308;50.948;4.706;2023-12-28T01:01:36;11.90;99.90
24146;DHT22;12308;50.948;4.706;2023-12-28T01:04:02;11.90;99.90
24146;DHT22;12308;50.948;4.706;2023-12-28T01:06:28;11.90;99.90
24146;DHT22;12308;50.948;4.706;2023-12-28T01:08:55;11.80;99.90
24146;DHT22;12308;50.948;4.706;2023-12-28T01:11:21;11.80;99.90
24146;DHT22;12308;50.948;4.706;2023-12-28T01:13:47;11.80;99.90
24146;DHT22;12308;50.948;4.706;2023-12-28T01:16:13;11.70;99.90
24146;DHT22;12308;50.948;4.706;2023-12-28T01:18:39;11.80;99.90
24146;DHT22;12308;50.948;4.706;2023-12-28T01:21:05;11.90;99.90
24146;DHT22;12308;50.948;4.706;2023-12-28T01:23:31;11.90;99.90
24146;DHT22;12308;50.948;4.706;2023-12-28T01:25:57;11.90;99.90
24146;DHT22;12308;50.948;4.706;2023-12-28T01:28:23;11.80;99.90
24146;DHT22;12308;50.948;4.706;2023-12-28T01:30:49;11.80;99.90
24146;DHT22;12308;50.948;4.706;2023-12-28T01:33:15;11.80;99.90
24146;DHT22;12308;50.948;4.706;2023-12-28T01:35:41;11.80;99.90
24146;DHT22;12308;50.948;4.706;2023-12-28T01:38:07;11.80;99.90
24146;DHT22;12308;50.948;4.706;2023-12-28T01:40:33;11.80;99.90
24146;DHT22;12308;50.948;4.706;2023-12-28T01:42:59;11.80;99.90
24146;DHT22;12308;50.948;4.706;2023-12-28T01:45:25;11.70;99.90
24146;DHT22;12308;50.948;4.706;2023-12-28T01:47:51;11.70;99.90
24146;DHT22;12308;50.948;4.706;2023-12-28T01:50:18;11.70;99.90
24146;DHT22;12308;50.948;4.706;2023-12-28T01:52:45;11.80;99.90
24146;DHT22;12308;50.948;4.706;2023-12-28T01:55:11;11.70;99.90
24146;DHT22;12308;50.948;4.706;2023-12-28T01:57:38;11.80;99.90
24146;DHT22;12308;50.948;4.706;2023-12-28T02:00:04;11.80;99.90
24146;DHT22;12308;50.948;4.706;2023-12-28T02:02:33;11.60;99.90
24146;DHT22;12308;50.948;4.706;2023-12-28T02:04:59;11.50;99.90
24146;DHT22;12308;50.948;4.706;2023-12-28T02:07:25;11.50;99.90
24146;DHT22;12308;50.948;4.706;2023-12-28T02:09:51;11.50;99.90
24146;DHT22;12308;50.948;4.706;2023-12-28T02:12:17;11.40;99.90
24146;DHT22;12308;50.948;4.706;2023-12-28T02:14:43;11.30;99.90
24146;DHT22;12308;50.948;4.706;2023-12-28T02:17:13;11.30;99.90
24146;DHT22;12308;50.948;4.706;2023-12-28T02:19:45;11.30;99.90
24146;DHT22;12308;50.948;4.706;2023-12-28T02:22:14;11.30;99.90
24146;DHT22;12308;50.948;4.706;2023-12-28T02:27:28;11.50;99.90
24146;DHT22;12308;50.948;4.706;2023-12-28T02:29:55;11.50;99.90
24146;DHT22;12308;50.948;4.706;2023-12-28T02:32:28;11.50;99.90
24146;DHT22;12308;50.948;4.706;2023-12-28T02:35:01;11.40;99.90
24146;DHT22;12308;50.948;4.706;2023-12-28T02:37:29;11.50;99.90
24146;DHT22;12308;50.948;4.706;2023-12-28T02:39:56;11.40;99.90
24146;DHT22;12308;50.948;4.706;2023-12-28T02:42:22;11.40;99.90
24146;DHT22;12308;50.948;4.706;2023-12-28T02:44:48;11.40;99.90
24146;DHT22;12308;50.948;4.706;2023-12-28T02:47:15;11.40;99.90
24146;DHT22;12308;50.948;4.706;2023-12-28T02:49:41;11.40;99.90
24146;DHT22;12308;50.948;4.706;2023-12-28T02:52:06;11.50;99.90
24146;DHT22;12308;50.948;4.706;2023-12-28T02:54:32;11.50;99.90
24146;DHT22;12308;50.948;4.706;2023-12-28T02:56:57;11.60;99.90
24146;DHT22;12308;50.948;4.706;2023-12-28T02:59:23;11.70;99.90
24146;DHT22;12308;50.948;4.706;2023-12-28T03:01:50;11.70;99.90
24146;DHT22;12308;50.948;4.706;2023-12-28T03:04:15;11.70;99.90
24146;DHT22;12308;50.948;4.706;2023-12-28T03:06:41;11.70;99.90
24146;DHT22;12308;50.948;4.706;2023-12-28T03:09:07;11.70;99.90
24146;DHT22;12308;50.948;4.706;2023-12-28T03:11:32;11.80;99.90
24146;DHT22;12308;50.948;4.706;2023-12-28T03:13:58;11.80;99.90
24146;DHT22;12308;50.948;4.706;2023-12-28T03:16:25;11.80;99.90
24146;DHT22;12308;50.948;4.706;2023-12-28T03:18:50;11.90;99.90
24146;DHT22;12308;50.948;4.706;2023-12-28T03:21:16;11.80;99.90
24146;DHT22;12308;50.948;4.706;2023-12-28T03:23:42;11.80;99.90
24146;DHT22;12308;50.948;4.706;2023-12-28T03:26:07;11.70;99.90
24146;DHT22;12308;50.948;4.706;2023-12-28T03:28:33;11.70;99.90
24146;DHT22;12308;50.948;4.706;2023-12-28T03:31:02;11.80;99.90
24146;DHT22;12308;50.948;4.706;2023-12-28T03:33:28;11.80;99.90
24146;DHT22;12308;50.948;4.706;2023-12-28T03:35:54;11.80;99.90
24146;DHT22;12308;50.948;4.706;2023-12-28T03:38:19;11.80;99.90
24146;DHT22;12308;50.948;4.706;2023-12-28T03:40:45;11.80;99.90
24146;DHT22;12308;50.948;4.706;2023-12-28T03:43:13;11.80;99.90
24146;DHT22;12308;50.948;4.706;2023-12-28T03:45:38;11.70;99.90
24146;DHT22;12308;50.948;4.706;2023-12-28T03:48:04;11.80;99.90
24146;DHT22;12308;50.948;4.706;2023-12-28T03:50:30;11.90;99.90
24146;DHT22;12308;50.948;4.706;2023-12-28T03:52:56;11.90;99.90
24146;DHT22;12308;50.948;4.706;2023-12-28T03:55:24;11.80;99.90
24146;DHT22;12308;50.948;4.706;2023-12-28T03:57:49;11.90;99.90
24146;DHT22;12308;50.948;4.706;2023-12-28T04:00:16;11.80;99.90
24146;DHT22;12308;50.948;4.706;2023-12-28T04:02:42;11.80;99.90
24146;DHT22;12308;50.948;4.706;2023-12-28T04:05:08;11.90;99.90
24146;DHT22;12308;50.948;4.706;2023-12-28T04:07:34;11.90;99.90
24146;DHT22;12308;50.948;4.706;2023-12-28T04:09:59;11.90;99.90
24146;DHT22;12308;50.948;4.706;2023-12-28T04:12:25;12.00;99.90
24146;DHT22;12308;50.948;4.706;2023-12-28T04:14:51;12.00;99.90
24146;DHT22;12308;50.948;4.706;2023-12-28T04:17:17;12.00;99.90
24146;DHT22;12308;50.948;4.706;2023-12-28T04:19:43;12.10;99.90
24146;DHT22;12308;50.948;4.706;2023-12-28T04:22:08;12.10;99.90
24146;DHT22;12308;50.948;4.706;2023-12-28T04:24:34;12.10;99.90
24146;DHT22;12308;50.948;4.706;2023-12-28T04:27:00;12.10;99.90
24146;DHT22;12308;50.948;4.706;2023-12-28T04:29:25;12.00;99.90
24146;DHT22;12308;50.948;4.706;2023-12-28T04:31:51;12.00;99.90
24146;DHT22;12308;50.948;4.706;2023-12-28T04:34:17;12.00;99.90
24146;DHT22;12308;50.948;4.706;2023-12-28T04:36:43;12.00;99.90
24146;DHT22;12308;50.948;4.706;2023-12-28T04:39:10;12.00;99.90
24146;DHT22;12308;50.948;4.706;2023-12-28T04:41:35;12.00;99.90
24146;DHT22;12308;50.948;4.706;2023-12-28T04:44:01;12.00;99.90
24146;DHT22;12308;50.948;4.706;2023-12-28T04:46:27;12.00;99.90
24146;DHT22;12308;50.948;4.706;2023-12-28T04:48:52;12.00;99.90
24146;DHT22;12308;50.948;4.706;2023-12-28T04:51:18;11.90;99.90
24146;DHT22;12308;50.948;4.706;2023-12-28T04:53:44;11.90;99.90
24146;DHT22;12308;50.948;4.706;2023-12-28T04:56:09;12.00;99.90
24146;DHT22;12308;50.948;4.706;2023-12-28T04:58:35;11.90;99.90
24146;DHT22;12308;50.948;4.706;2023-12-28T05:01:01;12.00;99.90
24146;DHT22;12308;50.948;4.706;2023-12-28T05:03:28;12.00;99.90
24146;DHT22;12308;50.948;4.706;2023-12-28T05:05:54;12.00;99.90
24146;DHT22;12308;50.948;4.706;2023-12-28T05:08:19;12.00;99.90
24146;DHT22;12308;50.948;4.706;2023-12-28T05:10:45;12.00;99.90
24146;DHT22;12308;50.948;4.706;2023-12-28T05:13:11;12.00;99.90
24146;DHT22;12308;50.948;4.706;2023-12-28T05:15:36;12.00;99.90
24146;DHT22;12308;50.948;4.706;2023-12-28T05:18:02;12.00;99.90
24146;DHT22;12308;50.948;4.706;2023-12-28T05:20:29;11.90;99.90
24146;DHT22;12308;50.948;4.706;2023-12-28T05:22:55;11.90;99.90
24146;DHT22;12308;50.948;4.706;2023-12-28T05:25:21;11.80;99.90
24146;DHT22;12308;50.948;4.706;2023-12-28T05:27:46;11.80;99.90
24146;DHT22;12308;50.948;4.706;2023-12-28T05:30:12;11.70;99.90
24146;DHT22;12308;50.948;4.706;2023-12-28T05:32:38;11.70;99.90
24146;DHT22;12308;50.948;4.706;2023-12-28T05:35:04;11.70;99.90
24146;DHT22;12308;50.948;4.706;2023-12-28T05:37:30;11.70;99.90
24146;DHT22;12308;50.948;4.706;2023-12-28T05:39:56;11.80;99.90
24146;DHT22;12308;50.948;4.706;2023-12-28T05:42:23;11.80;99.90
24146;DHT22;12308;50.948;4.706;2023-12-28T05:44:48;11.80;99.90
24146;DHT22;12308;50.948;4.706;2023-12-28T05:47:14;11.80;99.90
24146;DHT22;12308;50.948;4.706;2023-12-28T05:49:40;11.80;99.90
24146;DHT22;12308;50.948;4.706;2023-12-28T05:52:05;11.80;99.90
24146;DHT22;12308;50.948;4.706;2023-12-28T05:54:31;11.70;99.90
24146;DHT22;12308;50.948;4.706;2023-12-28T05:56:56;11.80;99.90
24146;DHT22;12308;50.948;4.706;2023-12-28T05:59:22;11.70;99.90
24146;DHT22;12308;50.948;4.706;2023-12-28T06:01:51;11.80;99.90
24146;DHT22;12308;50.948;4.706;2023-12-28T06:04:17;11.80;99.90
24146;DHT22;12308;50.948;4.706;2023-12-28T06:06:43;11.70;99.90
24146;DHT22;12308;50.948;4.706;2023-12-28T06:09:09;11.70;99.90
24146;DHT22;12308;50.948;4.706;2023-12-28T06:11:34;11.70;99.90
24146;DHT22;12308;50.948;4.706;2023-12-28T06:14:00;11.70;99.90
24146;DHT22;12308;50.948;4.706;2023-12-28T06:16:26;11.70;99.90
24146;DHT22;12308;50.948;4.706;2023-12-28T06:18:52;11.70;99.90
24146;DHT22;12308;50.948;4.706;2023-12-28T06:21:18;11.60;99.90
24146;DHT22;12308;50.948;4.706;2023-12-28T06:23:44;11.60;99.90
24146;DHT22;12308;50.948;4.706;2023-12-28T06:26:09;11.50;99.90
24146;DHT22;12308;50.948;4.706;2023-12-28T06:28:35;11.50;99.90
24146;DHT22;12308;50.948;4.706;2023-12-28T06:31:01;11.50;99.90
24146;DHT22;12308;50.948;4.706;2023-12-28T06:33:28;11.60;99.90
24146;DHT22;12308;50.948;4.706;2023-12-28T06:35:54;11.60;99.90
24146;DHT22;12308;50.948;4.706;2023-12-28T06:38:20;11.50;99.90
24146;DHT22;12308;50.948;4.706;2023-12-28T06:40:46;11.60;99.90
24146;DHT22;12308;50.948;4.706;2023-12-28T06:43:11;11.50;99.90
24146;DHT22;12308;50.948;4.706;2023-12-28T06:45:37;11.60;99.90
24146;DHT22;12308;50.948;4.706;2023-12-28T06:48:04;11.50;99.90
24146;DHT22;12308;50.948;4.706;2023-12-28T06:50:30;11.50;99.90
24146;DHT22;12308;50.948;4.706;2023-12-28T06:52:56;11.50;99.90
24146;DHT22;12308;50.948;4.706;2023-12-28T06:55:22;11.50;99.90
24146;DHT22;12308;50.948;4.706;2023-12-28T06:57:48;11.40;99.90
24146;DHT22;12308;50.948;4.706;2023-12-28T07:00:14;11.50;99.90
24146;DHT22;12308;50.948;4.706;2023-12-28T07:02:39;11.40;99.90
24146;DHT22;12308;50.948;4.706;2023-12-28T07:05:05;11.40;99.90
24146;DHT22;12308;50.948;4.706;2023-12-28T07:07:31;11.50;99.90
24146;DHT22;12308;50.948;4.706;2023-12-28T07:09:57;11.50;99.90
24146;DHT22;12308;50.948;4.706;2023-12-28T07:12:23;11.30;99.90
24146;DHT22;12308;50.948;4.706;2023-12-28T07:14:49;11.30;99.90
24146;DHT22;12308;50.948;4.706;2023-12-28T07:17:15;11.30;99.90
24146;DHT22;12308;50.948;4.706;2023-12-28T07:19:43;11.30;99.90
24146;DHT22;12308;50.948;4.706;2023-12-28T07:22:09;11.30;99.90
24146;DHT22;12308;50.948;4.706;2023-12-28T07:24:35;11.20;99.90
24146;DHT22;12308;50.948;4.706;2023-12-28T07:27:00;11.20;99.90
24146;DHT22;12308;50.948;4.706;2023-12-28T07:29:26;11.20;99.90
24146;DHT22;12308;50.948;4.706;2023-12-28T07:31:53;11.20;99.90
24146;DHT22;12308;50.948;4.706;2023-12-28T07:34:19;11.20;99.90
24146;DHT22;12308;50.948;4.706;2023-12-28T07:36:44;11.20;99.90
24146;DHT22;12308;50.948;4.706;2023-12-28T07:39:10;11.30;99.90
24146;DHT22;12308;50.948;4.706;2023-12-28T07:41:36;11.20;99.90
24146;DHT22;12308;50.948;4.706;2023-12-28T07:44:02;11.30;99.90
24146;DHT22;12308;50.948;4.706;2023-12-28T07:46:27;11.30;99.90
24146;DHT22;12308;50.948;4.706;2023-12-28T07:48:53;11.30;99.90
24146;DHT22;12308;50.948;4.706;2023-12-28T07:51:18;11.20;99.90
24146;DHT22;12308;50.948;4.706;2023-12-28T07:53:44;11.30;99.90
24146;DHT22;12308;50.948;4.706;2023-12-28T07:56:10;11.20;99.90
24146;DHT22;12308;50.948;4.706;2023-12-28T07:58:35;11.30;99.90
24146;DHT22;12308;50.948;4.706;2023-12-28T08:01:03;11.20;99.90
24146;DHT22;12308;50.948;4.706;2023-12-28T08:03:28;11.20;99.90
24146;DHT22;12308;50.948;4.706;2023-12-28T08:05:54;11.20;99.90
24146;DHT22;12308;50.948;4.706;2023-12-28T08:08:20;11.20;99.90
24146;DHT22;12308;50.948;4.706;2023-12-28T08:10:46;11.20;99.90
24146;DHT22;12308;50.948;4.706;2023-12-28T08:13:12;11.20;99.90
24146;DHT22;12308;50.948;4.706;2023-12-28T08:15:37;11.20;99.90
24146;DHT22;12308;50.948;4.706;2023-12-28T08:18:03;11.20;99.90
24146;DHT22;12308;50.948;4.706;2023-12-28T08:20:29;11.30;99.90
24146;DHT22;12308;50.948;4.706;2023-12-28T08:22:55;11.20;99.90
24146;DHT22;12308;50.948;4.706;2023-12-28T08:25:20;11.20;99.90
24146;DHT22;12308;50.948;4.706;2023-12-28T08:27:48;11.20;99.90
24146;DHT22;12308;50.948;4.706;2023-12-28T08:30:14;11.20;99.90
24146;DHT22;12308;50.948;4.706;2023-12-28T08:32:39;11.30;99.90
24146;DHT22;12308;50.948;4.706;2023-12-28T08:35:05;11.30;99.90
24146;DHT22;12308;50.948;4.706;2023-12-28T08:37:32;11.30;99.90
24146;DHT22;12308;50.948;4.706;2023-12-28T08:39:58;11.30;99.90
24146;DHT22;12308;50.948;4.706;2023-12-28T08:42:24;11.40;99.90
24146;DHT22;12308;50.948;4.706;2023-12-28T08:44:50;11.40;99.90
24146;DHT22;12308;50.948;4.706;2023-12-28T08:47:16;11.40;99.90
24146;DHT22;12308;50.948;4.706;2023-12-28T08:49:41;11.40;99.90
24146;DHT22;12308;50.948;4.706;2023-12-28T08:52:07;11.40;99.90
24146;DHT22;12308;50.948;4.706;2023-12-28T08:54:33;11.50;99.90
24146;DHT22;12308;50.948;4.706;2023-12-28T08:56:58;11.60;99.90
24146;DHT22;12308;50.948;4.706;2023-12-28T08:59:24;11.60;99.90
24146;DHT22;12308;50.948;4.706;2023-12-28T09:01:53;11.80;99.90
24146;DHT22;12308;50.948;4.706;2023-12-28T09:04:19;11.70;99.90
24146;DHT22;12308;50.948;4.706;2023-12-28T09:06:45;11.80;99.90
24146;DHT22;12308;50.948;4.706;2023-12-28T09:09:10;11.80;99.90
24146;DHT22;12308;50.948;4.706;2023-12-28T09:11:36;11.90;99.90
24146;DHT22;12308;50.948;4.706;2023-12-28T09:14:02;11.90;99.90
24146;DHT22;12308;50.948;4.706;2023-12-28T09:16:27;11.90;99.90
24146;DHT22;12308;50.948;4.706;2023-12-28T09:18:53;12.00;99.90
24146;DHT22;12308;50.948;4.706;2023-12-28T09:21:19;12.00;99.90
24146;DHT22;12308;50.948;4.706;2023-12-28T09:23:46;12.00;99.90
24146;DHT22;12308;50.948;4.706;2023-12-28T09:26:12;12.00;99.90
24146;DHT22;12308;50.948;4.706;2023-12-28T09:28:37;12.10;99.90
24146;DHT22;12308;50.948;4.706;2023-12-28T09:31:03;12.10;99.90
24146;DHT22;12308;50.948;4.706;2023-12-28T09:33:30;12.20;99.90
24146;DHT22;12308;50.948;4.706;2023-12-28T09:35:55;12.20;99.90
24146;DHT22;12308;50.948;4.706;2023-12-28T09:38:21;12.20;99.90
24146;DHT22;12308;50.948;4.706;2023-12-28T09:40:49;12.20;99.90
24146;DHT22;12308;50.948;4.706;2023-12-28T09:43:21;12.20;99.90
24146;DHT22;12308;50.948;4.706;2023-12-28T09:45:48;12.40;99.90
24146;DHT22;12308;50.948;4.706;2023-12-28T09:48:17;12.40;99.90
24146;DHT22;12308;50.948;4.706;2023-12-28T09:50:54;12.40;99.90
24146;DHT22;12308;50.948;4.706;2023-12-28T09:53:23;12.40;99.90
24146;DHT22;12308;50.948;4.706;2023-12-28T09:55:50;12.40;99.90
24146;DHT22;12308;50.948;4.706;2023-12-28T09:58:18;12.40;99.90
24146;DHT22;12308;50.948;4.706;2023-12-28T10:00:45;12.50;99.90
24146;DHT22;12308;50.948;4.706;2023-12-28T10:03:15;12.40;99.90
24146;DHT22;12308;50.948;4.706;2023-12-28T10:05:41;12.50;99.90
24146;DHT22;12308;50.948;4.706;2023-12-28T10:08:08;12.60;99.90
24146;DHT22;12308;50.948;4.706;2023-12-28T10:10:34;12.60;99.90
24146;DHT22;12308;50.948;4.706;2023-12-28T10:13:00;12.60;99.90
24146;DHT22;12308;50.948;4.706;2023-12-28T10:15:26;12.50;99.90
24146;DHT22;12308;50.948;4.706;2023-12-28T10:17:52;12.50;99.90
24146;DHT22;12308;50.948;4.706;2023-12-28T10:20:18;12.40;99.90
24146;DHT22;12308;50.948;4.706;2023-12-28T10:22:44;12.40;99.90
24146;DHT22;12308;50.948;4.706;2023-12-28T10:25:11;12.30;99.90
24146;DHT22;12308;50.948;4.706;2023-12-28T10:27:39;12.40;99.90
24146;DHT22;12308;50.948;4.706;2023-12-28T10:30:08;12.40;99.90
24146;DHT22;12308;50.948;4.706;2023-12-28T10:32:36;12.50;99.90
24146;DHT22;12308;50.948;4.706;2023-12-28T10:35:02;12.70;99.90
24146;DHT22;12308;50.948;4.706;2023-12-28T10:37:31;12.70;99.90
24146;DHT22;12308;50.948;4.706;2023-12-28T10:39:59;12.70;99.90
24146;DHT22;12308;50.948;4.706;2023-12-28T10:42:32;12.60;99.90
24146;DHT22;12308;50.948;4.706;2023-12-28T10:45:04;12.60;99.90
24146;DHT22;12308;50.948;4.706;2023-12-28T10:47:38;12.60;99.90
24146;DHT22;12308;50.948;4.706;2023-12-28T10:50:05;12.60;99.90
24146;DHT22;12308;50.948;4.706;2023-12-28T10:52:32;12.50;99.90
24146;DHT22;12308;50.948;4.706;2023-12-28T11:00:23;12.60;99.90
24146;DHT22;12308;50.948;4.706;2023-12-28T11:02:57;12.70;99.90
24146;DHT22;12308;50.948;4.706;2023-12-28T11:05:24;12.60;99.90
24146;DHT22;12308;50.948;4.706;2023-12-28T11:07:50;12.70;99.90
24146;DHT22;12308;50.948;4.706;2023-12-28T11:10:20;12.80;99.90
24146;DHT22;12308;50.948;4.706;2023-12-28T11:12:49;12.90;99.90
24146;DHT22;12308;50.948;4.706;2023-12-28T11:15:17;12.90;99.90
24146;DHT22;12308;50.948;4.706;2023-12-28T11:17:43;12.80;99.90
24146;DHT22;12308;50.948;4.706;2023-12-28T11:20:09;13.00;99.90
24146;DHT22;12308;50.948;4.706;2023-12-28T11:22:36;13.00;99.90
24146;DHT22;12308;50.948;4.706;2023-12-28T11:25:03;12.90;99.90
24146;DHT22;12308;50.948;4.706;2023-12-28T11:27:34;12.90;99.90
24146;DHT22;12308;50.948;4.706;2023-12-28T11:30:00;13.00;99.90
24146;DHT22;12308;50.948;4.706;2023-12-28T11:32:26;13.00;99.90
24146;DHT22;12308;50.948;4.706;2023-12-28T11:34:57;13.00;99.90
24146;DHT22;12308;50.948;4.706;2023-12-28T11:37:26;13.00;99.90
24146;DHT22;12308;50.948;4.706;2023-12-28T11:39:52;13.00;99.90
24146;DHT22;12308;50.948;4.706;2023-12-28T11:42:22;13.00;99.90
24146;DHT22;12308;50.948;4.706;2023-12-28T11:44:55;12.90;99.90
24146;DHT22;12308;50.948;4.706;2023-12-28T11:47:25;12.80;99.90
24146;DHT22;12308;50.948;4.706;2023-12-28T11:49:52;12.80;99.90
24146;DHT22;12308;50.948;4.706;2023-12-28T11:52:26;12.80;99.90
24146;DHT22;12308;50.948;4.706;2023-12-28T11:54:52;12.90;99.90
24146;DHT22;12308;50.948;4.706;2023-12-28T11:57:18;12.90;99.90
24146;DHT22;12308;50.948;4.706;2023-12-28T11:59:44;12.80;99.90
24146;DHT22;12308;50.948;4.706;2023-12-28T12:02:10;12.80;99.90
24146;DHT22;12308;50.948;4.706;2023-12-28T12:04:37;12.80;99.90
24146;DHT22;12308;50.948;4.706;2023-12-28T12:07:03;12.80;99.90
24146;DHT22;12308;50.948;4.706;2023-12-28T12:09:29;12.90;99.90
24146;DHT22;12308;50.948;4.706;2023-12-28T12:12:00;12.90;99.90
24146;DHT22;12308;50.948;4.706;2023-12-28T12:14:26;12.90;99.90
24146;DHT22;12308;50.948;4.706;2023-12-28T12:16:54;13.00;99.90
24146;DHT22;12308;50.948;4.706;2023-12-28T12:19:23;13.00;99.90
24146;DHT22;12308;50.948;4.706;2023-12-28T12:21:49;13.10;99.90
24146;DHT22;12308;50.948;4.706;2023-12-28T12:24:17;13.10;99.90
24146;DHT22;12308;50.948;4.706;2023-12-28T12:26:45;13.10;99.90
24146;DHT22;12308;50.948;4.706;2023-12-28T12:29:10;13.00;99.90
24146;DHT22;12308;50.948;4.706;2023-12-28T12:31:37;13.10;99.90
24146;DHT22;12308;50.948;4.706;2023-12-28T12:34:04;13.10;99.90
24146;DHT22;12308;50.948;4.706;2023-12-28T12:36:29;13.10;99.90
24146;DHT22;12308;50.948;4.706;2023-12-28T12:38:56;13.10;99.90
24146;DHT22;12308;50.948;4.706;2023-12-28T12:41:22;13.10;99.90
24146;DHT22;12308;50.948;4.706;2023-12-28T12:43:47;13.20;99.90
24146;DHT22;12308;50.948;4.706;2023-12-28T12:46:13;13.20;99.90
24146;DHT22;12308;50.948;4.706;2023-12-28T12:48:39;13.30;99.90
24146;DHT22;12308;50.948;4.706;2023-12-28T12:51:06;13.20;99.90
24146;DHT22;12308;50.948;4.706;2023-12-28T12:53:35;13.10;99.90
24146;DHT22;12308;50.948;4.706;2023-12-28T12:56:05;13.10;99.90
24146;DHT22;12308;50.948;4.706;2023-12-28T12:58:31;13.10;99.90
24146;DHT22;12308;50.948;4.706;2023-12-28T13:00:57;13.20;99.90
24146;DHT22;12308;50.948;4.706;2023-12-28T13:03:27;13.20;99.90
24146;DHT22;12308;50.948;4.706;2023-12-28T13:05:55;13.10;99.90
24146;DHT22;12308;50.948;4.706;2023-12-28T13:08:22;13.10;99.90
24146;DHT22;12308;50.948;4.706;2023-12-28T13:10:47;13.10;99.90
24146;DHT22;12308;50.948;4.706;2023-12-28T13:13:15;13.10;99.90
24146;DHT22;12308;50.948;4.706;2023-12-28T13:15:41;13.10;99.90
24146;DHT22;12308;50.948;4.706;2023-12-28T13:18:06;13.20;99.90
24146;DHT22;12308;50.948;4.706;2023-12-28T13:20:32;13.30;99.90
24146;DHT22;12308;50.948;4.706;2023-12-28T13:22:58;13.20;99.90
24146;DHT22;12308;50.948;4.706;2023-12-28T13:25:24;13.10;99.90
24146;DHT22;12308;50.948;4.706;2023-12-28T13:27:49;13.10;99.90
24146;DHT22;12308;50.948;4.706;2023-12-28T13:30:15;13.10;99.90
24146;DHT22;12308;50.948;4.706;2023-12-28T13:32:41;13.00;99.90
24146;DHT22;12308;50.948;4.706;2023-12-28T13:35:07;12.90;99.90
24146;DHT22;12308;50.948;4.706;2023-12-28T13:37:32;12.90;99.90
24146;DHT22;12308;50.948;4.706;2023-12-28T13:39:58;12.90;99.90
24146;DHT22;12308;50.948;4.706;2023-12-28T13:42:24;12.90;99.90
24146;DHT22;12308;50.948;4.706;2023-12-28T13:44:50;12.80;99.90
24146;DHT22;12308;50.948;4.706;2023-12-28T13:47:15;12.90;99.90
24146;DHT22;12308;50.948;4.706;2023-12-28T13:49:41;12.90;99.90
24146;DHT22;12308;50.948;4.706;2023-12-28T13:52:07;12.80;99.90
24146;DHT22;12308;50.948;4.706;2023-12-28T13:54:33;12.80;99.90
24146;DHT22;12308;50.948;4.706;2023-12-28T13:56:58;12.80;99.90
24146;DHT22;12308;50.948;4.706;2023-12-28T13:59:25;12.80;99.90
24146;DHT22;12308;50.948;4.706;2023-12-28T14:01:50;12.90;99.90
24146;DHT22;12308;50.948;4.706;2023-12-28T14:04:16;12.80;99.90
24146;DHT22;12308;50.948;4.706;2023-12-28T14:06:42;12.80;99.90
24146;DHT22;12308;50.948;4.706;2023-12-28T14:09:07;12.80;99.90
24146;DHT22;12308;50.948;4.706;2023-12-28T14:11:34;12.80;99.90
24146;DHT22;12308;50.948;4.706;2023-12-28T14:13:59;12.70;99.90
24146;DHT22;12308;50.948;4.706;2023-12-28T14:16:25;12.70;99.90
24146;DHT22;12308;50.948;4.706;2023-12-28T14:18:51;12.70;99.90
24146;DHT22;12308;50.948;4.706;2023-12-28T14:21:18;12.70;99.90
24146;DHT22;12308;50.948;4.706;2023-12-28T14:23:44;12.70;99.90
24146;DHT22;12308;50.948;4.706;2023-12-28T14:26:14;12.60;99.90
24146;DHT22;12308;50.948;4.706;2023-12-28T14:28:43;12.70;99.90
24146;DHT22;12308;50.948;4.706;2023-12-28T14:31:12;12.60;99.90
24146;DHT22;12308;50.948;4.706;2023-12-28T14:33:39;12.50;99.90
24146;DHT22;12308;50.948;4.706;2023-12-28T14:36:23;12.60;99.90
24146;DHT22;12308;50.948;4.706;2023-12-28T14:38:51;12.60;99.90
24146;DHT22;12308;50.948;4.706;2023-12-28T14:41:17;12.70;99.90
24146;DHT22;12308;50.948;4.706;2023-12-28T14:43:42;12.70;99.90
24146;DHT22;12308;50.948;4.706;2023-12-28T14:46:08;12.70;99.90
24146;DHT22;12308;50.948;4.706;2023-12-28T14:48:34;12.70;99.90
24146;DHT22;12308;50.948;4.706;2023-12-28T14:51:00;12.60;99.90
24146;DHT22;12308;50.948;4.706;2023-12-28T14:53:25;12.60;99.90
24146;DHT22;12308;50.948;4.706;2023-12-28T14:55:52;12.60;99.90
24146;DHT22;12308;50.948;4.706;2023-12-28T14:58:17;12.50;99.90
24146;DHT22;12308;50.948;4.706;2023-12-28T15:00:45;12.50;99.90
24146;DHT22;12308;50.948;4.706;2023-12-28T15:03:11;12.50;99.90
24146;DHT22;12308;50.948;4.706;2023-12-28T15:05:37;12.50;99.90
24146;DHT22;12308;50.948;4.706;2023-12-28T15:08:03;12.50;99.90
24146;DHT22;12308;50.948;4.706;2023-12-28T15:10:29;12.50;99.90
24146;DHT22;12308;50.948;4.706;2023-12-28T15:12:55;12.40;99.90
24146;DHT22;12308;50.948;4.706;2023-12-28T15:15:21;12.40;99.90
24146;DHT22;12308;50.948;4.706;2023-12-28T15:17:47;12.40;99.90
24146;DHT22;12308;50.948;4.706;2023-12-28T15:20:13;12.40;99.90
24146;DHT22;12308;50.948;4.706;2023-12-28T15:22:39;12.40;99.90
24146;DHT22;12308;50.948;4.706;2023-12-28T15:25:05;12.50;99.90
24146;DHT22;12308;50.948;4.706;2023-12-28T15:27:33;12.40;99.90
24146;DHT22;12308;50.948;4.706;2023-12-28T15:30:00;12.30;99.90
24146;DHT22;12308;50.948;4.706;2023-12-28T15:32:25;12.30;99.90